CheckWX is a tool to help pilots better visualize weather data.  It is not intended as a substitute for an official pre-flight weather briefing.

22:16:49 UTC

LTAJ TAF
Gaziantep International Airport
Gaziantep, Turkey
TAF LTAJ 281640Z 2818/2918 VRB02KT 9999 SCT020 BKN080 TEMPO 2818/2821 -RA BECMG 2821/2824 -RA SCT010 BKN030 TEMPO 2900/2904 4000 BR

Jan-28@
18:00 UTC

Jan-28 @ 18:00 UTC

Jan-28@
21:00 UTC

Jan-28 @ 21:00 UTC

TAF LTAJ 281640Z 2818/2918 VRB02KT 9999 SCT020 BKN080

Expired

Wind
  • Variable at 2 KTS
Cloud Levels
  • Scattered at 2,000' AGL
  • Broken at 8,000' AGL

Jan-28@
18:00 UTC

Jan-28 @ 18:00 UTC

Jan-28@
21:00 UTC

Jan-28 @ 21:00 UTC

TEMPO 2818/2821 -RA

Expired

Conditions
Light Rain

Jan-28@
21:00 UTC

Jan-28 @ 21:00 UTC

Jan-29@
18:00 UTC

Jan-29 @ 18:00 UTC

BECMG 2821/2824 -RA SCT010 BKN030

Becoming

Becoming Conditions expected by Wed, Jan 29, 2020 @ 00:00 UTC

Wind
  • Variable at 2 KTS
Conditions
Light Rain
Cloud Levels
  • Scattered at 1,000' AGL
  • Broken at 3,000' AGL

Jan-29@
00:00 UTC

Jan-29 @ 00:00 UTC

Jan-29@
04:00 UTC

Jan-29 @ 04:00 UTC

TEMPO 2900/2904 4000 BR

Temporary

Temporary Changes expected for less than half the time period

Conditions
Mist